Time;durP1;ratioP1;P1;durP2;ratioP2;P2;SDS_P1;SDS_P2;PMS_P1;PMS_P2;Temp;Humidity;BMP_temperature;BMP_pressure;BME280_temperature;BME280_humidity;BME280_pressure;Samples;Min_cycle;Max_cycle;Signal;HPM_P1;HPM_P2
2021/04/24 00:00:19;;;;;;;2.65;1.63;;;15.70;80.40;;;;;;5067696;28;20095;-69
2021/04/24 00:02:45;;;;;;;2.53;1.80;;;15.90;81.30;;;;;;5067598;28;20021;-69
2021/04/24 00:05:18;;;;;;;1.92;1.73;;;15.80;82.00;;;;;;5067135;28;20033;-69
2021/04/24 00:07:43;;;;;;;2.45;1.85;;;15.70;82.70;;;;;;5048553;28;20518;-70
2021/04/24 00:10:10;;;;;;;2.60;1.80;;;15.50;83.10;;;;;;5046374;28;20041;-70
2021/04/24 00:12:36;;;;;;;3.60;2.05;;;15.40;82.00;;;;;;5046312;28;20029;-70
2021/04/24 00:15:04;;;;;;;3.35;2.03;;;15.30;82.80;;;;;;5059457;28;20407;-70
2021/04/24 00:17:32;;;;;;;2.30;1.77;;;15.30;82.40;;;;;;5065912;28;20581;-70
2021/04/24 00:19:57;;;;;;;3.35;1.75;;;15.50;81.10;;;;;;5066397;28;20029;-70
2021/04/24 00:22:23;;;;;;;1.30;1.20;;;15.50;81.50;;;;;;5066492;28;20414;-70
2021/04/24 00:24:48;;;;;;;2.42;1.70;;;15.50;81.80;;;;;;5066527;28;20096;-70
2021/04/24 00:27:14;;;;;;;2.05;1.50;;;15.50;80.50;;;;;;5066921;28;20064;-70
2021/04/24 00:29:40;;;;;;;3.00;1.95;;;15.60;81.10;;;;;;5066040;28;20032;-69
2021/04/24 00:32:06;;;;;;;2.22;1.60;;;15.50;81.20;;;;;;5066399;28;20036;-69
2021/04/24 00:34:32;;;;;;;2.22;1.50;;;15.30;81.40;;;;;;5065821;28;20099;-69
2021/04/24 00:36:59;;;;;;;2.20;1.50;;;15.20;82.20;;;;;;5065070;28;20114;-69
2021/04/24 00:39:25;;;;;;;2.55;1.52;;;15.10;81.80;;;;;;5065914;28;20017;-69
2021/04/24 00:41:50;;;;;;;1.98;1.50;;;15.20;80.40;;;;;;5066310;28;20029;-69
2021/04/24 00:44:16;;;;;;;2.10;1.15;;;15.20;79.80;;;;;;5066740;28;20312;-69
2021/04/24 00:46:42;;;;;;;1.88;1.27;;;15.30;79.00;;;;;;5065934;28;20462;-69
2021/04/24 00:49:10;;;;;;;1.67;1.50;;;15.30;80.80;;;;;;5048482;28;20029;-70
2021/04/24 00:51:36;;;;;;;2.40;1.75;;;15.10;87.70;;;;;;5046045;28;20025;-70
2021/04/24 00:54:03;;;;;;;3.35;1.90;;;15.10;83.80;;;;;;5046004;28;20028;-70
2021/04/24 00:56:28;;;;;;;2.85;1.67;;;15.00;86.90;;;;;;5046304;28;20029;-70
2021/04/24 00:58:54;;;;;;;2.95;2.08;;;15.00;86.80;;;;;;5045964;28;20442;-69
2021/04/24 01:01:20;;;;;;;2.90;1.77;;;14.80;88.60;;;;;;5045594;28;20033;-70
2021/04/24 01:03:46;;;;;;;2.63;1.98;;;14.60;90.60;;;;;;5046441;28;20078;-70
2021/04/24 01:06:12;;;;;;;3.47;2.08;;;14.60;88.40;;;;;;5046181;28;20028;-70
2021/04/24 01:08:39;;;;;;;3.17;1.80;;;14.60;87.00;;;;;;5044586;28;20582;-70
2021/04/24 01:11:04;;;;;;;2.30;1.88;;;14.70;85.00;;;;;;5045666;28;20040;-70
2021/04/24 01:13:30;;;;;;;3.83;1.77;;;14.60;86.60;;;;;;5045439;28;20567;-70
2021/04/24 01:15:56;;;;;;;2.97;1.60;;;14.80;86.30;;;;;;5063387;28;20032;-69
2021/04/24 01:18:22;;;;;;;2.47;1.40;;;14.70;85.40;;;;;;5064858;28;20737;-70
2021/04/24 01:20:48;;;;;;;3.45;1.60;;;14.70;85.00;;;;;;5066542;28;20024;-70
2021/04/24 01:23:14;;;;;;;2.72;1.42;;;14.70;85.40;;;;;;5066127;28;20039;-69
2021/04/24 01:25:42;;;;;;;2.42;1.50;;;14.80;84.30;;;;;;5064695;28;20032;-70
2021/04/24 01:28:08;;;;;;;1.73;1.42;;;14.90;85.60;;;;;;5065415;28;20051;-70
2021/04/24 01:30:39;;;;;;;1.85;1.55;;;14.90;85.40;;;;;;5065725;28;20025;-69
2021/04/24 01:33:08;;;;;;;2.40;1.50;;;14.90;86.00;;;;;;5065529;28;20025;-69
2021/04/24 01:35:35;;;;;;;1.95;1.60;;;15.00;85.70;;;;;;5065115;28;20052;-69
2021/04/24 01:38:02;;;;;;;2.03;1.60;;;15.00;85.50;;;;;;5065460;28;20025;-69
2021/04/24 01:40:30;;;;;;;3.55;1.70;;;14.90;84.40;;;;;;5062962;28;20491;-70
2021/04/24 01:42:56;;;;;;;2.78;1.80;;;14.70;87.10;;;;;;5065323;28;20070;-70
2021/04/24 01:45:23;;;;;;;2.83;1.75;;;14.60;86.80;;;;;;5064727;28;20103;-70
2021/04/24 01:47:50;;;;;;;2.83;1.85;;;14.70;86.60;;;;;;5065063;28;20029;-70
2021/04/24 01:50:43;;;;;;;2.30;1.77;;;14.60;86.60;;;;;;5065935;28;20047;-70
2021/04/24 01:53:12;;;;;;;3.00;1.92;;;14.50;87.40;;;;;;5063977;28;20029;-70
2021/04/24 01:55:39;;;;;;;3.00;2.00;;;14.40;87.60;;;;;;5064749;28;20865;-69
2021/04/24 01:58:08;;;;;;;3.90;2.00;;;14.40;87.80;;;;;;5064935;28;20032;-69
2021/04/24 02:00:39;;;;;;;3.63;2.05;;;14.40;89.00;;;;;;5064806;28;20021;-69
2021/04/24 02:03:10;;;;;;;3.28;1.80;;;14.30;91.30;;;;;;5065002;28;20506;-70
2021/04/24 02:05:36;;;;;;;2.90;1.98;;;14.30;90.70;;;;;;5060237;28;20077;-70
2021/04/24 02:08:12;;;;;;;2.75;1.90;;;14.40;89.50;;;;;;5044976;28;20121;-70
2021/04/24 02:10:39;;;;;;;2.35;1.80;;;14.50;89.60;;;;;;5044987;28;20067;-70
2021/04/24 02:13:11;;;;;;;3.67;2.47;;;14.60;88.60;;;;;;5044933;28;20525;-70
2021/04/24 02:15:37;;;;;;;3.03;1.95;;;14.40;88.10;;;;;;5044711;28;20463;-70
2021/04/24 02:18:04;;;;;;;4.53;2.20;;;14.30;88.10;;;;;;5044502;28;20032;-70
2021/04/24 02:20:30;;;;;;;3.35;2.33;;;14.40;88.40;;;;;;5044645;28;20542;-70
2021/04/24 02:22:56;;;;;;;3.25;2.00;;;14.30;90.20;;;;;;5044759;28;20029;-70
2021/04/24 02:25:22;;;;;;;4.80;2.22;;;14.20;90.30;;;;;;5044688;28;20021;-69
2021/04/24 02:27:48;;;;;;;2.80;1.63;;;14.00;90.80;;;;;;5044865;28;20021;-70
2021/04/24 02:30:17;;;;;;;3.28;2.10;;;14.00;91.50;;;;;;5045498;28;20029;-69
2021/04/24 02:32:43;;;;;;;3.85;2.10;;;13.90;91.00;;;;;;5056899;28;20035;-69
2021/04/24 02:35:10;;;;;;;3.72;2.03;;;13.70;90.20;;;;;;5064664;28;20020;-69
2021/04/24 02:37:37;;;;;;;2.90;2.25;;;13.80;90.30;;;;;;5065534;28;20498;-70
2021/04/24 02:40:07;;;;;;;3.60;2.67;;;13.80;90.40;;;;;;5068496;28;20103;-70
2021/04/24 02:42:33;;;;;;;3.28;2.22;;;13.80;90.80;;;;;;5068036;28;20028;-71
2021/04/24 02:45:05;;;;;;;3.90;2.30;;;13.60;90.80;;;;;;5068308;28;20372;-71
2021/04/24 02:47:31;;;;;;;3.92;2.90;;;13.50;91.20;;;;;;5067665;28;20059;-71
2021/04/24 02:49:56;;;;;;;5.70;2.97;;;13.60;91.30;;;;;;5068022;28;20119;-72
2021/04/24 02:52:23;;;;;;;4.10;2.78;;;13.50;91.50;;;;;;5067925;28;20166;-71
2021/04/24 02:54:48;;;;;;;4.50;3.35;;;13.40;91.60;;;;;;5068213;28;20044;-72
2021/04/24 02:57:15;;;;;;;3.92;2.50;;;13.30;91.60;;;;;;5068470;28;20037;-71
2021/04/24 02:59:41;;;;;;;3.70;2.58;;;13.40;91.70;;;;;;5067754;28;20032;-70
2021/04/24 03:02:06;;;;;;;3.15;2.53;;;13.50;91.70;;;;;;5068139;28;20021;-70
2021/04/24 03:04:32;;;;;;;5.65;2.88;;;13.40;91.60;;;;;;5067719;28;20234;-70
2021/04/24 03:06:58;;;;;;;4.65;2.63;;;13.40;91.60;;;;;;5066558;28;20111;-71
2021/04/24 03:09:23;;;;;;;3.53;2.67;;;13.30;91.70;;;;;;5066908;28;20051;-71
2021/04/24 03:11:49;;;;;;;4.50;2.70;;;13.20;91.70;;;;;;5067899;28;20035;-71
2021/04/24 03:14:15;;;;;;;5.13;3.20;;;13.10;91.90;;;;;;5068537;28;20028;-71
2021/04/24 03:16:41;;;;;;;3.92;3.47;;;13.20;91.70;;;;;;5067415;28;20439;-71
2021/04/24 03:19:08;;;;;;;4.03;2.92;;;13.40;91.70;;;;;;5067350;28;20445;-71
2021/04/24 03:21:35;;;;;;;5.05;3.08;;;13.30;91.20;;;;;;5066120;28;20029;-71
2021/04/24 03:24:03;;;;;;;6.13;3.08;;;13.30;91.90;;;;;;5066721;28;20080;-70
2021/04/24 03:26:29;;;;;;;3.38;2.72;;;13.40;91.80;;;;;;5067346;28;20028;-70
2021/04/24 03:28:55;;;;;;;4.07;2.90;;;13.50;91.40;;;;;;5067309;28;20017;-70
2021/04/24 03:31:21;;;;;;;4.90;3.10;;;13.50;91.30;;;;;;5067267;28;20046;-70
2021/04/24 03:33:47;;;;;;;3.78;2.95;;;13.50;91.20;;;;;;5067698;28;20027;-70
2021/04/24 03:36:12;;;;;;;4.95;3.33;;;13.50;91.30;;;;;;5067973;28;20363;-69
2021/04/24 03:38:38;;;;;;;4.78;3.25;;;13.60;91.10;;;;;;5066898;28;20060;-69
2021/04/24 03:41:05;;;;;;;5.60;3.47;;;13.40;91.10;;;;;;5067365;28;20478;-70
2021/04/24 03:43:31;;;;;;;3.22;2.58;;;13.40;91.30;;;;;;5067060;28;20027;-70
2021/04/24 03:45:57;;;;;;;3.95;2.70;;;13.50;91.30;;;;;;5067141;28;20021;-71
2021/04/24 03:48:23;;;;;;;3.00;2.60;;;13.60;91.40;;;;;;5066027;28;20037;-70
2021/04/24 03:50:49;;;;;;;3.28;2.50;;;13.50;91.20;;;;;;5066733;28;20037;-71
2021/04/24 03:53:15;;;;;;;3.45;2.70;;;13.40;91.30;;;;;;5067665;28;20058;-70
2021/04/24 03:55:41;;;;;;;6.00;3.10;;;13.30;91.40;;;;;;5066694;28;20612;-70
2021/04/24 03:58:06;;;;;;;4.03;2.67;;;13.30;91.30;;;;;;5066971;28;20028;-70
2021/04/24 04:00:32;;;;;;;3.08;2.47;;;13.30;91.30;;;;;;5066479;28;20065;-70
2021/04/24 04:03:03;;;;;;;3.70;2.60;;;13.30;91.40;;;;;;5066479;28;20023;-70
2021/04/24 04:05:32;;;;;;;3.38;2.60;;;13.30;91.50;;;;;;5058946;28;20041;-70
2021/04/24 04:07:58;;;;;;;4.72;2.75;;;13.30;91.70;;;;;;5046722;28;20163;-71
2021/04/24 04:10:24;;;;;;;4.40;2.83;;;13.20;91.60;;;;;;5046119;28;20037;-70
2021/04/24 04:12:51;;;;;;;2.70;2.30;;;13.10;91.90;;;;;;5046548;28;20108;-71
2021/04/24 04:15:19;;;;;;;4.03;2.75;;;13.00;92.40;;;;;;5046875;28;20029;-71
2021/04/24 04:18:06;;;;;;;4.78;2.53;;;12.90;92.50;;;;;;5065470;28;20813;-70
2021/04/24 04:20:32;;;;;;;5.50;3.60;;;13.00;92.40;;;;;;5066284;28;20070;-71
2021/04/24 04:22:59;;;;;;;5.65;3.55;;;12.80;92.40;;;;;;5066569;28;20020;-70
2021/04/24 04:25:26;;;;;;;4.75;2.85;;;12.70;92.50;;;;;;5066064;28;20138;-70
2021/04/24 04:27:53;;;;;;;4.10;2.80;;;12.70;92.40;;;;;;5066202;28;20028;-69
2021/04/24 04:30:19;;;;;;;4.35;2.67;;;12.70;92.10;;;;;;5066387;28;20063;-70
2021/04/24 04:32:45;;;;;;;5.53;2.50;;;12.70;92.20;;;;;;5066674;28;20621;-70
2021/04/24 04:35:14;;;;;;;3.22;2.28;;;12.70;92.00;;;;;;5065087;28;20174;-70
2021/04/24 04:37:40;;;;;;;3.08;2.20;;;12.70;92.40;;;;;;5065587;28;20025;-70
2021/04/24 04:40:07;;;;;;;3.47;1.95;;;12.70;91.50;;;;;;5065990;28;20017;-70
2021/04/24 04:42:34;;;;;;;2.88;2.10;;;12.80;91.30;;;;;;5065840;28;20017;-71
2021/04/24 04:45:00;;;;;;;4.53;2.22;;;12.80;91.60;;;;;;5066063;28;20028;-70
2021/04/24 04:47:25;;;;;;;5.22;2.75;;;13.00;91.90;;;;;;5065422;28;20146;-70
2021/04/24 04:49:53;;;;;;;3.63;2.53;;;13.00;92.10;;;;;;5065968;28;20039;-71
2021/04/24 04:52:18;;;;;;;3.55;2.83;;;13.00;92.40;;;;;;5066076;28;20024;-71
2021/04/24 04:54:44;;;;;;;5.03;3.10;;;13.00;92.90;;;;;;5066348;28;20498;-69
2021/04/24 04:57:10;;;;;;;3.75;3.00;;;12.90;92.80;;;;;;5065616;28;20028;-68
2021/04/24 04:59:37;;;;;;;4.20;3.10;;;12.80;93.00;;;;;;5064295;28;20036;-68
2021/04/24 05:02:03;;;;;;;3.90;3.20;;;12.60;93.20;;;;;;5063212;28;20025;-68
2021/04/24 05:04:30;;;;;;;3.50;2.70;;;12.50;93.20;;;;;;5065348;28;20028;-68
2021/04/24 05:06:56;;;;;;;3.72;2.67;;;12.50;93.40;;;;;;5063025;28;20025;-68
2021/04/24 05:09:22;;;;;;;4.75;2.90;;;12.70;93.50;;;;;;5064446;28;20033;-69
2021/04/24 05:11:51;;;;;;;3.80;2.95;;;12.80;93.00;;;;;;5065716;28;20026;-68
2021/04/24 05:14:18;;;;;;;5.47;2.33;;;12.80;92.60;;;;;;5067367;28;20028;-68
2021/04/24 05:16:44;;;;;;;2.72;1.92;;;12.80;92.20;;;;;;5065603;28;20061;-69
2021/04/24 05:19:10;;;;;;;4.25;1.95;;;12.90;92.20;;;;;;5065535;28;20056;-68
2021/04/24 05:21:37;;;;;;;2.47;2.00;;;13.00;91.80;;;;;;5065172;28;20259;-69
2021/04/24 05:24:05;;;;;;;2.60;2.15;;;12.90;92.70;;;;;;5066807;28;20067;-68
2021/04/24 05:26:31;;;;;;;3.03;2.15;;;12.70;95.00;;;;;;5084006;28;20416;-68
2021/04/24 05:28:57;;;;;;;2.85;2.40;;;12.50;96.60;;;;;;5085551;28;20034;-68
2021/04/24 05:31:25;;;;;;;3.97;2.60;;;12.40;98.00;;;;;;5080191;28;20477;-68
2021/04/24 05:33:53;;;;;;;3.78;2.65;;;12.30;98.00;;;;;;5065603;28;20039;-67
2021/04/24 05:36:19;;;;;;;4.15;2.65;;;12.20;98.50;;;;;;5050475;28;20035;-68
2021/04/24 05:38:47;;;;;;;2.70;1.83;;;12.60;98.00;;;;;;5067700;28;20059;-68
2021/04/24 05:41:17;;;;;;;1.80;1.45;;;12.90;94.90;;;;;;5066116;28;20031;-69
2021/04/24 05:43:42;;;;;;;2.45;1.85;;;13.00;93.80;;;;;;5063832;28;20082;-70
2021/04/24 05:46:08;;;;;;;1.73;1.30;;;13.20;94.00;;;;;;5058902;28;20036;-69
2021/04/24 05:48:33;;;;;;;1.67;1.52;;;13.10;92.20;;;;;;5064742;28;20082;-70
2021/04/24 05:50:59;;;;;;;1.55;1.17;;;13.30;91.90;;;;;;5064467;28;20036;-70
2021/04/24 05:53:25;;;;;;;1.75;1.30;;;13.40;91.60;;;;;;5064932;28;20024;-70
2021/04/24 05:55:51;;;;;;;1.48;1.30;;;13.50;91.30;;;;;;5063371;28;20449;-69
2021/04/24 05:58:16;;;;;;;1.75;1.27;;;13.40;91.10;;;;;;5065772;28;20029;-68
2021/04/24 06:00:42;;;;;;;1.70;1.30;;;13.50;91.00;;;;;;5059137;28;20035;-68
2021/04/24 06:03:08;;;;;;;1.60;1.35;;;13.60;91.60;;;;;;5064930;28;20029;-68
2021/04/24 06:05:33;;;;;;;1.40;1.30;;;13.50;90.40;;;;;;5058957;28;20441;-68
2021/04/24 06:07:59;;;;;;;2.28;1.20;;;13.40;91.00;;;;;;5064600;28;20045;-68
2021/04/24 06:10:25;;;;;;;1.40;1.25;;;13.30;90.90;;;;;;5061393;28;20082;-67
2021/04/24 06:12:50;;;;;;;1.65;1.10;;;13.60;90.90;;;;;;5069921;28;20050;-67
2021/04/24 06:15:19;;;;;;;1.38;1.25;;;13.70;91.20;;;;;;5056033;28;20154;-67
2021/04/24 06:17:45;;;;;;;3.17;1.70;;;13.70;91.80;;;;;;5057644;28;20021;-68
2021/04/24 06:20:12;;;;;;;2.63;1.75;;;13.90;91.60;;;;;;5068865;28;20032;-67
2021/04/24 06:22:39;;;;;;;1.85;1.40;;;13.80;92.60;;;;;;5069296;28;20919;-68
2021/04/24 06:25:10;;;;;;;1.73;1.52;;;13.90;92.50;;;;;;5068015;28;20013;-68
2021/04/24 06:27:37;;;;;;;1.55;1.15;;;13.80;90.40;;;;;;5066161;28;20029;-67
2021/04/24 06:30:08;;;;;;;1.55;1.10;;;13.90;90.40;;;;;;5057550;28;20083;-67
2021/04/24 06:32:35;;;;;;;1.42;0.95;;;13.90;90.40;;;;;;5064166;28;20475;-67
2021/04/24 06:35:00;;;;;;;1.95;1.20;;;14.00;90.90;;;;;;5049195;28;20032;-67
2021/04/24 06:37:26;;;;;;;1.55;1.20;;;14.10;90.80;;;;;;5048945;28;20044;-68
2021/04/24 06:39:53;;;;;;;1.38;1.27;;;14.20;90.60;;;;;;5059943;28;20323;-67
2021/04/24 06:42:18;;;;;;;0.93;0.90;;;14.40;90.70;;;;;;5068356;28;20051;-67
2021/04/24 06:44:44;;;;;;;1.20;1.10;;;14.60;90.50;;;;;;5068389;28;20538;-67
2021/04/24 06:47:10;;;;;;;2.53;1.10;;;14.70;91.00;;;;;;5055010;28;20414;-67
2021/04/24 06:49:36;;;;;;;1.15;1.05;;;14.80;91.30;;;;;;5068295;28;20033;-68
2021/04/24 06:52:01;;;;;;;3.53;1.58;;;14.90;91.80;;;;;;5068942;28;20043;-69
2021/04/24 06:54:27;;;;;;;2.13;1.40;;;15.00;92.10;;;;;;5059190;28;20025;-69
2021/04/24 06:56:52;;;;;;;2.33;1.20;;;15.00;92.50;;;;;;5062582;28;20102;-68
2021/04/24 06:59:18;;;;;;;1.67;1.25;;;15.10;92.20;;;;;;5067619;28;20054;-68
2021/04/24 07:01:44;;;;;;;1.52;1.30;;;15.10;92.20;;;;;;5062279;28;20032;-68
2021/04/24 07:04:09;;;;;;;3.08;1.10;;;15.10;92.30;;;;;;5058547;28;20028;-69
2021/04/24 07:06:36;;;;;;;1.08;0.98;;;15.20;92.70;;;;;;5057464;28;20629;-67
2021/04/24 07:09:02;;;;;;;1.70;1.30;;;15.30;92.30;;;;;;5053603;28;20028;-68
2021/04/24 07:11:28;;;;;;;1.40;1.30;;;15.30;92.80;;;;;;5059655;28;20051;-68
2021/04/24 07:13:54;;;;;;;2.13;1.50;;;15.30;93.10;;;;;;5059479;28;20491;-68
2021/04/24 07:16:20;;;;;;;1.42;1.13;;;15.30;92.70;;;;;;5063535;28;20036;-68
2021/04/24 07:18:46;;;;;;;2.53;1.48;;;15.40;93.00;;;;;;5066458;28;20028;-68
2021/04/24 07:21:12;;;;;;;1.40;1.30;;;15.40;92.60;;;;;;5068556;28;20028;-68
2021/04/24 07:23:40;;;;;;;1.67;1.40;;;15.50;92.30;;;;;;5067105;28;20020;-69
2021/04/24 07:26:09;;;;;;;2.28;1.10;;;15.50;92.60;;;;;;5067437;28;20407;-69
2021/04/24 07:28:36;;;;;;;1.73;1.30;;;15.60;92.70;;;;;;5067674;28;20066;-68
2021/04/24 07:31:03;;;;;;;1.70;1.20;;;15.70;92.90;;;;;;5068182;28;20032;-69
2021/04/24 07:33:29;;;;;;;1.55;1.20;;;15.60;93.00;;;;;;5067492;28;20048;-68
2021/04/24 07:35:55;;;;;;;2.15;1.30;;;15.60;93.00;;;;;;5067736;28;20067;-68
2021/04/24 07:38:21;;;;;;;1.20;1.10;;;15.50;93.10;;;;;;5066894;28;20064;-68
2021/04/24 07:40:48;;;;;;;1.17;1.08;;;15.70;92.80;;;;;;5068427;28;20111;-69
2021/04/24 07:43:14;;;;;;;2.88;1.00;;;15.70;92.80;;;;;;5068880;28;20100;-68
2021/04/24 07:45:40;;;;;;;1.00;0.90;;;15.80;92.10;;;;;;5067457;28;20128;-69
2021/04/24 07:48:06;;;;;;;1.45;1.27;;;15.90;92.70;;;;;;5068102;28;20028;-69
2021/04/24 07:50:33;;;;;;;1.60;1.50;;;15.90;92.50;;;;;;5063077;28;20351;-69
2021/04/24 07:52:59;;;;;;;1.90;1.17;;;15.90;91.70;;;;;;5067147;28;20095;-69
2021/04/24 07:55:25;;;;;;;1.42;1.20;;;15.90;92.80;;;;;;5066070;28;20494;-69
2021/04/24 07:57:51;;;;;;;1.42;1.10;;;16.00;92.00;;;;;;5067153;28;20391;-68
2021/04/24 08:00:17;;;;;;;1.42;1.10;;;16.20;92.00;;;;;;5067183;28;20036;-69
2021/04/24 08:02:43;;;;;;;1.35;1.10;;;16.40;92.80;;;;;;5067162;28;20445;-69
2021/04/24 08:05:09;;;;;;;1.00;0.90;;;16.40;92.40;;;;;;5067146;28;20044;-68
2021/04/24 08:07:35;;;;;;;0.63;0.63;;;16.60;91.70;;;;;;5068159;28;20032;-69
2021/04/24 08:10:01;;;;;;;0.93;0.80;;;16.50;91.10;;;;;;5065965;28;20048;-69
2021/04/24 08:12:26;;;;;;;0.77;0.77;;;16.60;90.90;;;;;;5067820;28;20499;-69
2021/04/24 08:14:55;;;;;;;0.60;0.60;;;16.60;91.40;;;;;;5065386;28;20119;-70
2021/04/24 08:17:21;;;;;;;0.70;0.65;;;16.60;89.70;;;;;;5057747;28;20429;-70
2021/04/24 08:19:47;;;;;;;1.20;0.70;;;16.80;91.00;;;;;;5051943;28;20039;-68
2021/04/24 08:22:12;;;;;;;1.08;0.90;;;16.90;89.80;;;;;;5051899;28;20104;-69
2021/04/24 08:24:38;;;;;;;1.55;0.80;;;16.90;90.10;;;;;;5068162;28;20040;-69
2021/04/24 08:27:04;;;;;;;0.55;0.50;;;16.90;89.30;;;;;;5063289;28;20114;-69
2021/04/24 08:29:30;;;;;;;1.33;0.93;;;16.90;90.10;;;;;;5065607;28;20067;-69
2021/04/24 08:31:57;;;;;;;0.63;0.63;;;16.90;89.10;;;;;;5065725;28;20052;-68
2021/04/24 08:34:25;;;;;;;0.43;0.43;;;17.10;89.50;;;;;;5047793;28;20047;-69
2021/04/24 08:36:51;;;;;;;0.50;0.50;;;17.10;90.20;;;;;;5057946;28;20024;-69
2021/04/24 08:39:17;;;;;;;0.90;0.70;;;17.30;89.70;;;;;;5065910;28;20035;-69
2021/04/24 08:41:43;;;;;;;0.50;0.50;;;17.50;90.10;;;;;;5065855;28;20025;-69
2021/04/24 08:44:13;;;;;;;2.25;0.70;;;17.70;89.30;;;;;;5065715;28;20094;-70
2021/04/24 08:46:40;;;;;;;0.60;0.60;;;17.80;88.10;;;;;;5065889;28;20350;-69
2021/04/24 08:49:06;;;;;;;0.50;0.50;;;17.70;89.40;;;;;;5065243;28;20051;-71
2021/04/24 08:51:31;;;;;;;0.65;0.60;;;17.80;90.10;;;;;;5055318;28;20052;-72
2021/04/24 08:53:59;;;;;;;0.60;0.60;;;18.20;90.50;;;;;;5067489;28;20462;-69
2021/04/24 08:56:26;;;;;;;0.60;0.60;;;18.10;89.90;;;;;;5067773;28;20016;-69
2021/04/24 08:58:57;;;;;;;1.83;1.20;;;18.30;89.30;;;;;;5060508;28;20036;-70
2021/04/24 09:01:24;;;;;;;1.58;1.30;;;18.20;87.00;;;;;;5067286;28;20165;-68
2021/04/24 09:03:50;;;;;;;1.13;0.80;;;18.00;86.00;;;;;;5055615;28;20029;-68
2021/04/24 09:06:20;;;;;;;1.13;0.90;;;17.90;88.10;;;;;;5064450;28;20367;-68
2021/04/24 09:09:15;;;;;;;1.13;0.75;;;18.20;88.70;;;;;;5067431;28;20514;-68
2021/04/24 09:11:43;;;;;;;6.50;3.05;;;18.20;86.40;;;;;;5055433;28;20564;-69
2021/04/24 09:14:12;;;;;;;3.67;2.50;;;18.10;87.60;;;;;;5067454;28;20074;-67
2021/04/24 09:16:39;;;;;;;3.22;2.00;;;18.20;87.20;;;;;;5067338;28;20388;-67
2021/04/24 09:19:30;;;;;;;1.85;1.30;;;18.40;88.00;;;;;;5061514;28;20060;-68
2021/04/24 09:22:16;;;;;;;1.77;1.60;;;18.50;87.40;;;;;;5066754;28;20028;-68
2021/04/24 09:24:44;;;;;;;2.78;1.75;;;18.50;83.20;;;;;;5067329;28;20021;-67
2021/04/24 09:27:10;;;;;;;3.08;1.48;;;18.40;80.60;;;;;;5066326;28;20043;-67
2021/04/24 09:29:36;;;;;;;2.38;1.50;;;18.50;82.00;;;;;;5067107;28;20025;-67
2021/04/24 09:32:21;;;;;;;1.88;1.60;;;18.70;83.20;;;;;;5066939;28;20090;-68
2021/04/24 09:34:50;;;;;;;3.80;2.50;;;18.60;79.00;;;;;;5067742;28;20055;-68
2021/04/24 09:37:22;;;;;;;2.80;2.15;;;18.50;79.30;;;;;;5067861;28;20418;-68
2021/04/24 09:39:54;;;;;;;4.00;2.20;;;18.50;79.30;;;;;;5067349;28;20082;-67
2021/04/24 09:42:34;;;;;;;10.10;5.38;;;18.60;79.20;;;;;;5067190;28;20021;-69
2021/04/24 09:45:02;;;;;;;7.72;4.35;;;18.60;79.00;;;;;;5067273;28;20031;-69
2021/04/24 09:47:45;;;;;;;4.72;3.17;;;18.70;77.90;;;;;;5068649;28;20039;-69
2021/04/24 09:50:16;;;;;;;4.22;3.20;;;18.70;78.60;;;;;;5071397;28;20032;-68
2021/04/24 09:52:43;;;;;;;8.85;5.57;;;19.00;79.10;;;;;;5071202;28;20125;-67
2021/04/24 09:55:14;;;;;;;6.57;4.90;;;18.80;77.30;;;;;;5071610;28;20032;-67
2021/04/24 09:57:40;;;;;;;6.45;3.88;;;18.90;80.50;;;;;;5070784;28;20043;-67
2021/04/24 10:00:12;;;;;;;8.52;4.03;;;19.00;77.10;;;;;;5071194;28;20036;-68
2021/04/24 10:02:43;;;;;;;4.97;3.03;;;19.00;78.40;;;;;;5070843;28;20435;-67
2021/04/24 10:05:18;;;;;;;2.85;1.90;;;18.90;77.80;;;;;;5070281;28;20029;-69
2021/04/24 10:07:56;;;;;;;3.15;2.10;;;19.10;78.30;;;;;;5069426;28;20107;-73
2021/04/24 10:10:24;;;;;;;3.92;2.17;;;19.20;77.20;;;;;;5069335;28;20070;-68
2021/04/24 10:13:09;;;;;;;1.77;1.63;;;19.30;75.60;;;;;;5069871;28;20043;-69
2021/04/24 10:15:45;;;;;;;3.83;2.53;;;19.30;76.90;;;;;;5069994;28;20048;-69
2021/04/24 10:18:15;;;;;;;13.20;5.82;;;19.30;74.80;;;;;;5070081;28;20044;-69
2021/04/24 10:20:44;;;;;;;11.35;6.07;;;19.50;76.10;;;;;;5059420;28;20025;-67
2021/04/24 10:23:12;;;;;;;11.60;5.80;;;19.40;74.00;;;;;;5070092;28;20028;-69
2021/04/24 10:25:40;;;;;;;10.00;5.00;;;19.30;74.40;;;;;;5069425;28;20028;-68
2021/04/24 10:28:06;;;;;;;8.68;4.63;;;19.40;75.10;;;;;;5064535;28;20528;-70
2021/04/24 10:30:31;;;;;;;24.63;12.10;;;19.50;75.60;;;;;;5067517;28;20040;-69
2021/04/24 10:32:57;;;;;;;25.15;13.57;;;19.50;75.00;;;;;;5068085;28;20430;-69
2021/04/24 10:35:26;;;;;;;14.35;7.50;;;19.50;74.20;;;;;;5071102;28;20033;-67
2021/04/24 10:37:53;;;;;;;7.82;5.30;;;19.50;75.40;;;;;;5054902;28;20036;-66
2021/04/24 10:40:20;;;;;;;5.95;3.53;;;19.50;75.00;;;;;;5056124;28;20025;-68
2021/04/24 10:42:54;;;;;;;5.53;2.70;;;19.60;75.50;;;;;;5069869;28;20021;-73
2021/04/24 10:45:34;;;;;;;4.65;2.38;;;19.60;74.80;;;;;;5069299;28;20052;-71
2021/04/24 10:48:01;;;;;;;2.17;1.65;;;19.70;75.50;;;;;;5059787;28;20037;-70
2021/04/24 10:50:39;;;;;;;3.00;1.90;;;19.80;75.40;;;;;;5062425;28;20077;-68
2021/04/24 10:53:26;;;;;;;7.07;3.30;;;19.80;74.20;;;;;;5065589;28;20375;-67
2021/04/24 10:55:53;;;;;;;7.60;3.40;;;20.00;75.40;;;;;;5050854;28;20403;-67
2021/04/24 10:58:22;;;;;;;3.80;2.45;;;20.00;75.30;;;;;;5048037;28;20531;-66
2021/04/24 11:00:52;;;;;;;2.75;1.80;;;20.10;75.50;;;;;;5063080;28;20021;-66
2021/04/24 11:03:51;;;;;;;3.38;2.03;;;20.20;73.90;;;;;;5069246;28;20032;-66
2021/04/24 11:06:19;;;;;;;2.00;1.60;;;20.10;73.90;;;;;;5058463;28;20415;-66
2021/04/24 11:08:46;;;;;;;7.00;3.03;;;20.30;75.10;;;;;;5065391;28;20029;-65
2021/04/24 11:11:13;;;;;;;4.95;2.42;;;20.30;74.40;;;;;;5069396;28;20042;-64
2021/04/24 11:13:51;;;;;;;5.10;2.55;;;20.30;73.90;;;;;;5069461;28;20037;-65
2021/04/24 11:16:18;;;;;;;3.85;2.50;;;20.30;74.90;;;;;;5070404;28;20025;-67
2021/04/24 11:18:47;;;;;;;3.05;2.13;;;20.30;73.40;;;;;;5068805;28;20020;-66
2021/04/24 11:21:29;;;;;;;3.25;1.77;;;20.40;73.70;;;;;;5060927;28;20024;-68
2021/04/24 11:24:14;;;;;;;3.17;1.52;;;20.60;75.50;;;;;;5069157;28;20475;-67
2021/04/24 11:26:42;;;;;;;2.92;1.95;;;20.80;75.30;;;;;;5065258;28;20025;-65
2021/04/24 11:29:16;;;;;;;1.95;1.58;;;20.90;73.80;;;;;;5068848;28;20029;-68
2021/04/24 11:31:53;;;;;;;;;;;20.90;73.80;;;;;;5068993;28;20024;-68
2021/04/24 11:34:26;;;;;;;3.47;2.47;;;21.10;74.50;;;;;;5069002;28;20365;-70
2021/04/24 11:37:13;;;;;;;6.43;3.77;;;21.10;74.10;;;;;;5069965;28;20033;-65
2021/04/24 11:39:58;;;;;;;6.72;3.90;;;20.90;73.30;;;;;;5054105;28;20552;-67
2021/04/24 11:42:28;;;;;;;4.82;2.85;;;21.00;74.20;;;;;;5068690;28;20024;-66
2021/04/24 11:44:54;;;;;;;4.15;2.28;;;21.20;73.50;;;;;;5069313;28;20040;-68
2021/04/24 11:47:38;;;;;;;3.50;2.28;;;21.30;73.30;;;;;;5075790;28;20503;-70
2021/04/24 11:50:05;;;;;;;2.83;1.90;;;21.50;73.50;;;;;;5064644;28;20090;-72
2021/04/24 11:52:32;;;;;;;4.13;3.30;;;21.40;73.10;;;;;;5071915;28;20522;-69
2021/04/24 11:54:57;;;;;;;2.78;2.22;;;21.50;73.00;;;;;;5051065;28;20521;-68
2021/04/24 11:57:24;;;;;;;5.38;3.33;;;21.60;72.20;;;;;;5047687;28;20029;-71
2021/04/24 11:59:49;;;;;;;4.30;2.85;;;21.90;71.00;;;;;;5057593;28;20107;-71
2021/04/24 12:02:21;;;;;;;3.42;2.33;;;21.80;71.30;;;;;;5088607;28;20103;-68
2021/04/24 12:04:50;;;;;;;2.95;1.90;;;22.00;71.70;;;;;;5088930;28;20027;-68
2021/04/24 12:07:19;;;;;;;2.25;1.58;;;22.30;70.80;;;;;;5088844;28;20030;-70
2021/04/24 12:10:02;;;;;;;1.60;1.20;;;22.70;71.40;;;;;;5087737;28;20032;-69
2021/04/24 12:12:36;;;;;;;1.67;1.58;;;22.90;69.20;;;;;;5070855;28;20103;-71
2021/04/24 12:15:22;;;;;;;1.98;1.67;;;23.10;70.60;;;;;;5068024;28;20260;-69
2021/04/24 12:18:08;;;;;;;1.58;1.30;;;23.10;68.90;;;;;;5068145;28;20035;-70
2021/04/24 12:20:34;;;;;;;1.27;1.17;;;23.40;67.90;;;;;;5046887;28;20052;-69
2021/04/24 12:23:06;;;;;;;1.05;0.95;;;23.50;67.80;;;;;;5046319;28;20051;-70
2021/04/24 12:25:34;;;;;;;1.63;1.50;;;23.60;67.30;;;;;;5064115;28;20095;-69
2021/04/24 12:28:08;;;;;;;1.48;1.30;;;23.70;66.10;;;;;;5066954;28;20032;-68
2021/04/24 12:30:39;;;;;;;1.77;1.08;;;23.90;67.60;;;;;;5067150;28;20107;-68
2021/04/24 12:33:17;;;;;;;2.40;1.70;;;24.00;66.90;;;;;;5067484;28;20035;-68
2021/04/24 12:35:47;;;;;;;1.45;1.35;;;24.00;65.30;;;;;;5067323;28;20043;-70
2021/04/24 12:38:17;;;;;;;1.30;1.02;;;24.30;65.60;;;;;;5066061;28;20040;-69
2021/04/24 12:40:51;;;;;;;1.42;1.10;;;24.50;64.10;;;;;;5067483;28;20028;-69
2021/04/24 12:43:22;;;;;;;2.10;1.27;;;24.30;63.70;;;;;;5075621;28;20033;-67
2021/04/24 12:45:50;;;;;;;3.92;1.40;;;24.30;63.30;;;;;;5067813;28;20047;-72
2021/04/24 12:48:26;;;;;;;1.20;1.10;;;24.50;61.50;;;;;;5067792;28;20189;-70
2021/04/24 12:50:59;;;;;;;1.50;1.20;;;24.60;61.90;;;;;;5068660;28;20024;-69
2021/04/24 12:53:38;;;;;;;1.92;1.40;;;24.70;62.40;;;;;;5066812;28;20136;-69